Details for Virgin Atlantic at EGCC




Go Back


Latest METAR
Local Time

EGCC 250450Z AUTO 04006KT 9999 NCD 12/09 Q1020 NOSIG

25/05/2018, 05:58:40

Description
Results
Virgin Atlantic Logo
Number of Pilots based at EGCC
1 Pilots Based here
Number of Virgin Atlantic Flights Departed from EGCC
4 Flights Departed
Number of Virgin Atlantic Flights Arrived at EGCC
2 Flights Arrived
Number of Virgin Atlantic Schedules Departing from EGCC
8 Schedules
Number of Virgin Atlantic Schedules Arriving at EGCC
7 Schedules
Number of Virgin Atlantic Schedules Departing from EGCC availible today
4 Schedules Today
Number of Virgin Atlantic Schedules Arriving at EGCC availible today
5 Schedules Today
Average Landing Rate at EGCC
-211 fpm
Virgin Atlantic Average Landing Rate at EGCC
-300 fpm
Total Fuel Purchased at EGCC by Virgin Atlantic
315,246.30 kgs / 694,991.99 lbs

Pilots Based at EGCC


Pilot ID
Pilot Name
Pilot Rank
No. of Flights
No. of Flying Hours
Andrew Sutcliffe
369
1400.17
Content